Latest Weather Observations for Yarram Airport

IDV60801

Issued at 10:31 pm EDT Tuesday 9 February 2016 (issued every 30 minutes, with the page automatically refreshed every 10 minutes)

About weather observations | Map of weather stations | Latest weather observations for VIC | Other Formats
Station Details ID: 085151 Name: YARRAM AIRPORT Lat: -38.56 Lon: 146.75 Height: 17.9 m
Data from the previous 72 hours. | See also: Recent months at Yarram Airport
Date/Time
EDT
Temp
°C
App
Temp
°C
Dew
Point
Rel
Hum
%
Delta-T
°C
Wind Press
QNH
hPa
Press
MSL
hPa
Rain
since 9 am
mm
Dir
 
Spd
km/h
Gust
km/h
Spd
kts
Gust
kts
09/10:30pm 15.7 15.3 13.0 84 1.5 NE 7 7 4 4 1017.2 1017.2 0.0
09/10:00pm 17.1 16.9 13.6 80 2.0 NE 7 7 4 4 1017.4 1017.4 0.0
09/09:30pm 17.8 17.7 13.9 78 2.2 ENE 7 9 4 5 1017.3 1017.3 0.0
09/09:00pm 18.4 18.4 14.1 76 2.5 E 7 9 4 5 1017.2 1017.2 0.0
09/08:30pm 19.5 19.0 13.7 69 3.3 E 9 11 5 6 1017.3 1017.3 0.0
09/08:00pm 20.8 20.0 13.0 61 4.4 E 9 13 5 7 1017.4 1017.4 0.0
09/07:30pm 21.8 20.3 13.2 58 4.9 E 13 17 7 9 1017.3 1017.3 0.0
09/07:00pm 22.3 21.3 13.4 57 5.1 ENE 11 17 6 9 1017.1 1017.1 0.0
09/06:30pm 22.9 21.6 13.7 56 5.4 E 13 19 7 10 1017.0 1017.0 0.0
09/06:00pm 23.2 21.3 14.2 57 5.3 ESE 17 24 9 13 1017.1 1017.1 0.0
09/05:30pm 23.2 21.4 14.5 58 5.1 E 17 24 9 13 1017.4 1017.4 0.0
09/05:00pm 23.7 22.4 14.9 57 5.2 E 15 22 8 12 1017.5 1017.5 0.0
09/04:30pm 24.0 22.5 15.2 58 5.3 ESE 17 24 9 13 1017.8 1017.8 0.0
09/04:00pm 23.9 22.3 14.9 57 5.4 ESE 17 24 9 13 1018.2 1018.2 0.0
09/03:30pm 24.2 22.6 14.9 56 5.6 ESE 17 22 9 12 1018.4 1018.4 0.0
09/03:00pm 23.8 22.1 14.8 57 5.3 ESE 17 24 9 13 1018.7 1018.7 0.0
09/02:30pm 23.8 22.5 14.8 57 5.4 ESE 15 30 8 16 1019.1 1019.1 0.0
09/02:00pm 23.6 21.6 14.9 58 5.2 ESE 19 30 10 16 1019.3 1019.3 0.0
09/01:30pm 25.1 23.1 14.9 53 6.1 ESE 19 32 10 17 1019.5 1019.5 0.0
09/01:00pm 25.1 24.9 13.6 49 6.7 N 7 13 4 7 1019.7 1019.7 0.0
09/12:30pm 24.3 23.8 11.9 45 7.0 N 6 11 3 6 1020.1 1020.1 0.0
09/12:00pm 23.8 23.1 13.1 51 6.2 S 9 15 5 8 1020.5 1020.5 0.0
09/11:30am 23.3 22.1 11.7 48 6.5 S 9 17 5 9 1020.7 1020.7 0.0
09/11:00am 22.2 21.6 12.2 53 5.6 NW 7 30 4 16 1020.9 1020.9 0.0
09/10:30am 21.4 20.3 12.0 55 5.3 WNW 9 15 5 8 1021.1 1021.1 0.0
09/10:00am 20.4 19.5 12.6 61 4.4 WNW 9 15 5 8 1021.3 1021.3 0.0
09/09:30am 19.6 18.1 13.1 66 3.7 W 13 17 7 9 1021.5 1021.5 0.0
09/09:00am 18.6 16.7 13.0 70 3.1 WNW 15 20 8 11 1021.5 1021.5 0.0
09/08:30am 17.7 16.1 12.8 73 2.7 WNW 13 17 7 9 1021.4 1021.4 0.0
09/08:00am 16.6 15.8 12.8 78 2.1 WNW 9 13 5 7 1021.2 1021.2 0.0
09/07:30am 15.4 13.7 12.3 82 1.7 WNW 13 17 7 9 1021.1 1021.1 0.0
09/07:00am 14.1 11.8 11.6 85 1.3 NW 15 17 8 9 1020.9 1020.9 0.0
09/06:30am 13.5 11.0 11.2 86 1.2 NW 15 17 8 9 1020.9 1020.9 0.0
09/06:00am 13.7 10.9 11.4 86 1.2 NW 17 19 9 10 1020.5 1020.5 0.0
09/05:30am 13.7 11.7 11.4 86 1.2 NW 13 17 7 9 1020.5 1020.5 0.0
09/05:00am 14.6 12.3 11.6 82 1.6 NW 15 17 8 9 1020.5 1020.5 0.0
09/04:30am 15.7 13.5 12.1 79 2.0 NW 15 19 8 10 1020.5 1020.5 0.0
09/04:00am 15.8 14.0 12.2 79 2.0 NNW 13 17 7 9 1020.7 1020.7 0.0
09/03:30am 15.7 13.6 12.5 81 1.8 NW 15 19 8 10 1020.7 1020.7 0.0
09/03:00am 15.7 14.0 12.6 82 1.7 NW 13 17 7 9 1020.9 1020.9 0.0
09/02:30am 16.0 13.6 12.7 81 1.8 W 17 20 9 11 1021.0 1021.0 0.0
09/02:00am 16.3 13.6 13.0 81 1.8 W 19 22 10 12 1021.3 1021.3 0.0
09/01:30am 15.8 13.9 13.1 84 1.5 W 15 20 8 11 1021.4 1021.4 0.0
09/01:00am 15.5 14.0 13.0 85 1.4 WNW 13 17 7 9 1021.6 1021.6 0.0
09/12:30am 16.0 13.4 13.1 83 1.6 W 19 22 10 12 1021.5 1021.5 0.0
09/12:00am 16.3 14.4 13.0 81 1.8 W 15 20 8 11 1021.6 1021.6 0.0
 
Date/Time
EDT
Temp
°C
App
Temp
°C
Dew
Point
Rel
Hum
%
Delta-T
°C
Wind Press
QNH
hPa
Press
MSL
hPa
Rain
since 9 am
mm
Dir
 
Spd
km/h
Gust
km/h
Spd
kts
Gust
kts
08/11:30pm 16.7 14.1 13.2 80 2.0 W 19 22 10 12 1021.7 1021.7 0.0
08/11:00pm 17.0 13.9 13.3 79 2.1 W 22 28 12 15 1021.7 1021.7 0.0
08/10:30pm 17.1 14.3 13.2 78 2.2 W 20 28 11 15 1022.0 1022.0 0.0
08/10:00pm 16.9 14.6 13.0 78 2.2 NW 17 20 9 11 1021.9 1021.9 0.0
08/09:30pm 17.7 14.1 13.0 74 2.6 WSW 24 33 13 18 1021.6 1021.6 0.0
08/09:00pm 17.9 15.3 13.2 74 2.6 WSW 19 24 10 13 1021.4 1021.4 0.0
08/08:30pm 18.5 16.0 13.4 72 2.9 WSW 19 26 10 14 1021.1 1021.1 0.0
08/08:00pm 19.4 16.4 12.7 65 3.8 WSW 20 30 11 16 1020.9 1020.9 0.0
08/07:30pm 20.3 15.9 12.8 62 4.2 WSW 28 37 15 20 1020.6 1020.6 0.0
08/07:00pm 21.1 14.7 12.0 56 5.1 WSW 37 44 20 24 1020.2 1020.2 0.0
08/06:50pm 21.3 15.6 13.0 59 4.7 WSW 35 43 19 23 1020.1 1020.1 0.0
08/06:30pm 21.9 16.3 13.3 58 4.9 SW 35 43 19 23 1020.2 1020.2 0.0
08/06:00pm 22.4 16.1 13.5 57 5.1 SW 39 48 21 26 1020.0 1020.0 0.0
08/05:30pm 23.4 17.6 13.8 54 5.6 SW 37 48 20 26 1019.9 1019.9 0.0
08/05:00pm 23.7 17.5 13.8 53 5.8 WSW 39 50 21 27 1020.0 1020.0 0.0
08/04:30pm 23.8 17.2 13.6 52 5.9 SW 41 52 22 28 1020.2 1020.2 0.0
08/04:00pm 24.1 18.3 13.9 53 6.0 SW 37 50 20 27 1020.1 1020.1 0.0
08/03:30pm 25.1 19.3 13.9 49 6.6 SW 37 48 20 26 1020.2 1020.2 0.0
08/03:00pm 25.7 20.6 14.8 51 6.5 SW 35 46 19 25 1020.3 1020.3 0.0
08/02:30pm 25.1 19.8 14.3 51 6.4 SW 35 46 19 25 1020.3 1020.3 0.0
08/02:00pm 25.2 19.8 14.9 52 6.2 SW 37 46 20 25 1020.4 1020.4 0.0
08/01:30pm 25.3 20.2 14.7 51 6.3 SW 35 46 19 25 1020.4 1020.4 0.0
08/01:00pm 25.9 21.0 15.3 52 6.4 SW 35 44 19 24 1020.6 1020.6 0.0
08/12:30pm 25.5 20.1 14.0 49 6.8 WSW 35 44 19 24 1020.8 1020.8 0.0
08/12:00pm 24.4 20.6 14.8 55 5.7 SW 28 37 15 20 1020.9 1020.9 0.0
08/11:30am 24.1 20.6 14.5 55 5.7 WSW 26 35 14 19 1020.9 1020.9 0.0
08/11:00am 23.4 19.3 13.8 54 5.6 WSW 28 41 15 22 1020.8 1020.8 0.0
08/10:30am 23.7 19.5 14.7 57 5.3 WSW 30 39 16 21 1020.9 1020.9 0.0
08/10:00am 22.4 18.1 14.5 61 4.6 WSW 30 39 16 21 1020.8 1020.8 0.0
08/09:30am 22.0 18.4 14.1 61 4.6 WSW 26 37 14 20 1020.6 1020.6 0.0
08/09:00am 21.0 17.5 14.4 66 3.8 WSW 26 33 14 18 1020.4 1020.4 0.0
08/08:30am 20.2 16.9 15.0 72 3.1 WSW 26 33 14 18 1020.2 1020.2 0.0
08/08:00am 19.2 15.9 14.9 76 2.5 WSW 26 32 14 17 1019.8 1019.8 0.0
08/07:30am 18.2 17.1 15.3 83 1.7 WSW 15 19 8 10 1019.7 1019.7 0.0
08/07:00am 17.3 16.4 14.9 86 1.4 WSW 13 19 7 10 1019.6 1019.6 0.0
08/06:30am 17.2 15.5 14.8 86 1.4 WSW 17 20 9 11 1019.3 1019.3 0.0
08/06:00am 17.3 15.7 15.1 87 1.3 WSW 17 24 9 13 1018.9 1018.9 0.0
08/05:30am 17.5 15.1 15.5 88 1.2 WSW 22 30 12 16 1018.7 1018.7 0.0
08/05:00am 16.8 15.2 15.0 89 1.0 WSW 17 24 9 13 1018.5 1018.5 0.0
08/04:30am 16.5 14.9 14.9 90 0.9 W 17 20 9 11 1018.2 1018.2 0.0
08/04:00am 16.4 14.9 15.3 93 0.6 WSW 17 20 9 11 1018.2 1018.2 0.0
08/03:30am 15.9 15.0 14.8 93 0.6 W 13 15 7 8 1018.2 1018.2 0.0
08/03:00am 16.0 15.0 14.5 91 0.9 WNW 13 15 7 8 1018.3 1018.3 0.0
08/02:30am 17.8 15.4 16.5 92 0.8 WSW 24 32 13 17 1018.4 1018.4 0.0
08/02:00am 18.1 15.9 16.8 92 0.8 WSW 24 32 13 17 1018.5 1018.5 0.0
08/01:30am 18.1 16.0 16.1 88 1.2 WSW 22 28 12 15 1018.6 1018.6 0.0
08/01:00am 16.6 16.1 15.0 90 0.9 W 11 13 6 7 1018.5 1018.5 0.0
08/12:30am 16.1 16.2 14.5 90 0.9 NNW 7 9 4 5 1018.3 1018.3 0.0
08/12:00am 16.7 18.3 14.9 89 1.0 CALM 0 0 0 0 1018.2 1018.2 0.0
 
Date/Time
EDT
Temp
°C
App
Temp
°C
Dew
Point
Rel
Hum
%
Delta-T
°C
Wind Press
QNH
hPa
Press
MSL
hPa
Rain
since 9 am
mm
Dir
 
Spd
km/h
Gust
km/h
Spd
kts
Gust
kts
07/11:30pm 17.6 19.5 15.8 89 1.1 CALM 0 0 0 0 1018.3 1018.3 0.0
07/11:00pm 17.0 18.6 15.0 88 1.2 CALM 0 0 0 0 1018.4 1018.4 0.0
07/10:30pm 16.9 18.2 14.2 84 1.5 CALM 0 0 0 0 1018.4 1018.4 0.0
07/10:00pm 18.9 21.2 16.7 87 1.3 CALM 0 0 0 0 1018.2 1018.2 0.0
07/09:30pm 18.7 20.6 15.8 83 1.7 CALM 0 0 0 0 1017.9 1017.9 0.0
07/09:00pm 20.2 21.1 16.0 77 2.5 ESE 6 7 3 4 1017.6 1017.6 0.0
07/08:30pm 21.8 22.3 16.5 72 3.2 ESE 9 9 5 5 1017.2 1017.2 0.0
07/08:00pm 23.1 24.1 16.9 68 3.8 E 7 9 4 5 1017.0 1017.0 0.0
07/07:30pm 24.0 24.2 16.8 64 4.4 ESE 11 13 6 7 1016.7 1016.7 0.0
07/07:00pm 24.6 25.1 16.6 61 4.9 ESE 9 15 5 8 1016.5 1016.5 0.0
07/06:30pm 25.0 24.6 16.2 58 5.4 SE 13 15 7 8 1016.3 1016.3 0.0
07/06:00pm 25.6 24.8 16.2 56 5.8 SE 15 19 8 10 1016.1 1016.1 0.0
07/05:30pm 25.9 25.2 16.5 56 5.8 ESE 15 20 8 11 1015.9 1015.9 0.0
07/05:00pm 26.8 26.1 17.3 56 5.9 ESE 17 22 9 12 1015.8 1015.8 0.0
07/04:30pm 27.3 26.9 16.3 51 6.8 SE 13 19 7 10 1015.8 1015.8 0.0
07/04:00pm 27.9 27.5 17.1 51 6.8 SE 15 20 8 11 1015.8 1015.8 0.0
07/03:30pm 27.5 26.7 16.1 49 7.0 SE 15 22 8 12 1015.7 1015.7 0.0
07/03:00pm 27.7 26.9 16.0 49 7.2 ESE 15 20 8 11 1015.8 1015.8 0.0
07/02:30pm 28.2 27.5 17.4 52 6.8 SE 17 24 9 13 1016.0 1016.0 0.0
07/02:00pm 27.6 26.4 16.2 49 7.0 SE 17 24 9 13 1016.1 1016.1 0.0
07/01:30pm 28.1 26.5 14.0 42 8.4 SSE 15 22 8 12 1016.1 1016.1 0.0
07/01:00pm 27.1 26.6 14.8 47 7.4 SSE 11 19 6 10 1016.4 1016.4 0.0
07/12:30pm 26.0 26.0 16.3 55 6.0 SSE 11 17 6 9 1016.6 1016.6 0.0
07/12:00pm 26.1 26.6 17.5 59 5.4 SSE 11 19 6 10 1016.7 1016.7 0.0
07/11:30am 25.4 25.4 16.3 57 5.6 S 11 17 6 9 1016.8 1016.8 0.0
07/11:00am 24.6 25.4 17.3 64 4.5 SSE 9 15 5 8 1016.8 1016.8 0.0
07/10:30am 23.5 24.2 16.1 63 4.5 SSE 7 11 4 6 1016.9 1016.9 0.0
07/10:00am 22.6 24.0 16.4 68 3.8 E 4 7 2 4 1016.8 1016.8 0.0
07/09:30am 20.7 22.1 16.5 77 2.5 WSW 4 7 2 4 1016.8 1016.8 0.0
07/09:00am 18.7 19.6 16.1 85 1.5 WNW 6 9 3 5 1016.9 1016.9 0.0
07/08:30am 17.1 17.2 15.4 90 1.0 W 9 11 5 6 1016.7 1016.7 0.0
07/08:00am 14.9 16.3 14.3 96 0.3 CALM 0 0 0 0 1016.4 1016.4 0.0
07/07:30am 13.0 13.8 12.4 96 0.3 CALM 0 0 0 0 1016.2 1016.2 0.0
07/07:00am 11.1 11.3 10.5 96 0.3 CALM 0 0 0 0 1015.9 1015.9 0.0
07/06:30am 11.3 11.5 10.7 96 0.3 CALM 0 0 0 0 1015.7 1015.7 0.0
07/06:00am 11.1 11.2 10.3 95 0.4 CALM 0 0 0 0 1015.4 1015.4 0.0
07/05:30am 11.5 11.7 10.7 95 0.4 CALM 0 0 0 0 1015.2 1015.2 0.0
07/05:00am 11.8 12.1 11.0 95 0.4 CALM 0 0 0 0 1015.2 1015.2 0.0
07/04:30am 11.6 11.9 10.8 95 0.4 CALM 0 0 0 0 1015.3 1015.3 0.0
07/04:00am 12.2 12.6 11.3 94 0.5 CALM 0 0 0 0 1015.4 1015.4 0.0
07/03:30am 12.9 13.5 12.0 94 0.5 CALM 0 0 0 0 1015.5 1015.5 0.0
07/03:00am 12.9 13.1 11.8 93 0.6 N 2 6 1 3 1015.6 1015.6 0.0
07/02:30am 14.6 14.4 13.6 94 0.6 NE 7 9 4 5 1015.7 1015.7 0.0
07/02:00am 14.7 14.7 13.7 94 0.6 NE 6 7 3 4 1015.9 1015.9 0.0
07/01:30am 15.2 15.2 14.2 94 0.6 NE 7 9 4 5 1016.2 1016.2 0.0
07/01:00am 15.4 15.1 14.4 94 0.6 NE 9 13 5 7 1016.3 1016.3 0.0
07/12:30am 14.2 13.8 12.9 92 0.7 NE 7 9 4 5 1016.7 1016.7 0.0
07/12:00am 16.1 15.9 14.8 92 0.7 NE 9 11 5 6 1016.9 1016.9 0.0
 
Date/Time
EDT
Temp
°C
App
Temp
°C
Dew
Point
Rel
Hum
%
Delta-T
°C
Wind Press
QNH
hPa
Press
MSL
hPa
Rain
since 9 am
mm
Dir
 
Spd
km/h
Gust
km/h
Spd
kts
Gust
kts
06/11:30pm 16.5 16.6 15.4 93 0.6 NE 9 11 5 6 1017.2 1017.2 0.0
06/11:00pm 16.5 16.8 15.0 91 0.9 NE 7 7 4 4 1017.5 1017.5 0.0

Other Formats:

Comma delimited format used in spreadsheet applications
http://www.bom.gov.au/fwo/IDV60801/IDV60801.95890.axf

JavaScript Object Notation format (JSON) in row-major order
http://www.bom.gov.au/fwo/IDV60801/IDV60801.95890.json